Time,TemperatureF,DewpointF,PressureIn,WindDirection,WindDirectionDegrees,WindSpeedMPH,WindSpeedGustMPH,Humidity,HourlyPrecipIn,Conditions,Clouds,dailyrainin,SoftwareType,DateUTC
2013-08-26 00:02:00,80.3,70.8,29.90,South,173,7.0,12.0,73,0.00,,,0.00,WeatherCatV1.21B27,2013-08-26 05:02:00,
2013-08-26 00:07:00,80.3,70.8,29.90,South,184,4.0,7.0,73,0.00,,,0.00,WeatherCatV1.21B27,2013-08-26 05:07:00,
2013-08-26 00:12:00,80.3,70.8,29.90,South,178,5.0,10.0,73,0.00,,,0.00,WeatherCatV1.21B27,2013-08-26 05:12:00,
2013-08-26 00:17:00,80.1,70.6,29.89,SSW,200,7.0,12.0,73,0.00,,,0.00,WeatherCatV1.21B27,2013-08-26 05:17:00,
2013-08-26 00:22:00,80.1,70.6,29.89,SSE,151,3.0,12.0,73,0.00,,,0.00,WeatherCatV1.21B27,2013-08-26 05:22:00,
2013-08-26 00:27:00,80.1,70.6,29.89,South,178,5.0,11.0,73,0.00,,,0.00,WeatherCatV1.21B27,2013-08-26 05:27:00,
2013-08-26 00:32:00,79.9,70.4,29.90,South,184,2.0,5.0,73,0.00,,,0.00,WeatherCatV1.21B27,2013-08-26 05:32:00,
2013-08-26 00:37:00,79.9,70.4,29.90,SSW,192,8.0,8.0,73,0.00,,,0.00,WeatherCatV1.21B27,2013-08-26 05:37:00,
2013-08-26 00:42:00,79.8,70.3,29.90,South,172,0.0,7.0,73,0.00,,,0.00,WeatherCatV1.21B27,2013-08-26 05:42:00,
2013-08-26 00:47:00,79.8,70.3,29.90,South,177,4.0,12.0,73,0.00,,,0.00,WeatherCatV1.21B27,2013-08-26 05:47:00,
2013-08-26 00:52:00,79.6,70.2,29.90,South,183,0.0,11.0,73,0.00,,,0.00,WeatherCatV1.21B27,2013-08-26 05:52:00,
2013-08-26 00:57:00,79.6,70.2,29.90,South,176,5.0,10.0,73,0.00,,,0.00,WeatherCatV1.21B27,2013-08-26 05:57:00,
2013-08-26 01:02:00,79.4,70.0,29.90,South,180,1.0,9.0,73,0.00,,,0.00,WeatherCatV1.21B27,2013-08-26 06:02:00,
2013-08-26 01:07:00,79.4,70.0,29.90,South,177,6.0,10.0,73,0.00,,,0.00,WeatherCatV1.21B27,2013-08-26 06:07:00,
2013-08-26 01:12:00,79.2,69.8,29.90,South,182,4.0,7.0,73,0.00,,,0.00,WeatherCatV1.21B27,2013-08-26 06:12:00,
2013-08-26 01:17:00,79.2,69.8,29.90,South,173,5.0,10.0,73,0.00,,,0.00,WeatherCatV1.21B27,2013-08-26 06:17:00,
2013-08-26 01:22:00,79.0,69.6,29.90,South,188,0.0,5.0,73,0.00,,,0.00,WeatherCatV1.21B27,2013-08-26 06:22:00,
2013-08-26 01:27:00,79.0,70.0,29.90,South,178,6.0,10.0,74,0.00,,,0.00,WeatherCatV1.21B27,2013-08-26 06:27:00,
2013-08-26 01:32:00,78.8,69.8,29.90,South,187,0.0,5.0,74,0.00,,,0.00,WeatherCatV1.21B27,2013-08-26 06:32:00,
2013-08-26 01:37:00,78.6,69.6,29.90,South,180,0.0,9.0,74,0.00,,,0.00,WeatherCatV1.21B27,2013-08-26 06:37:00,
2013-08-26 01:42:00,78.6,69.6,29.90,South,179,3.0,5.0,74,0.00,,,0.00,WeatherCatV1.21B27,2013-08-26 06:42:00,
2013-08-26 01:47:00,78.5,69.9,29.90,South,189,3.0,5.0,75,0.00,,,0.00,WeatherCatV1.21B27,2013-08-26 06:47:00,
2013-08-26 01:52:00,78.3,69.7,29.90,South,189,0.0,5.0,75,0.00,,,0.00,WeatherCatV1.21B27,2013-08-26 06:52:00,
2013-08-26 01:57:00,78.1,69.9,29.90,South,184,2.0,4.0,76,0.00,,,0.00,WeatherCatV1.21B27,2013-08-26 06:57:00,
2013-08-26 02:02:00,77.9,69.7,29.90,South,182,0.0,3.0,76,0.00,,,0.00,WeatherCatV1.21B27,2013-08-26 07:02:00,
2013-08-26 02:07:00,77.7,69.5,29.90,South,186,2.0,3.0,76,0.00,,,0.00,WeatherCatV1.21B27,2013-08-26 07:07:00,
2013-08-26 02:12:00,77.7,69.9,29.90,South,186,2.0,5.0,77,0.00,,,0.00,WeatherCatV1.21B27,2013-08-26 07:12:00,
2013-08-26 02:17:00,77.6,69.8,29.89,South,190,3.0,9.0,77,0.00,,,0.00,WeatherCatV1.21B27,2013-08-26 07:17:00,
2013-08-26 02:22:00,77.4,69.6,29.89,South,182,0.0,6.0,77,0.00,,,0.00,WeatherCatV1.21B27,2013-08-26 07:22:00,
2013-08-26 02:27:00,77.2,69.8,29.89,South,184,0.0,5.0,78,0.00,,,0.00,WeatherCatV1.21B27,2013-08-26 07:27:00,
2013-08-26 02:32:00,77.2,69.8,29.89,South,184,4.0,5.0,78,0.00,,,0.00,WeatherCatV1.21B27,2013-08-26 07:32:00,
2013-08-26 02:37:00,77.0,70.0,29.89,South,184,0.0,2.0,79,0.00,,,0.00,WeatherCatV1.21B27,2013-08-26 07:37:00,
2013-08-26 02:42:00,76.8,69.8,29.89,South,184,1.0,5.0,79,0.00,,,0.00,WeatherCatV1.21B27,2013-08-26 07:42:00,
2013-08-26 02:47:00,76.7,69.7,29.89,South,184,0.0,3.0,79,0.00,,,0.00,WeatherCatV1.21B27,2013-08-26 07:47:00,
2013-08-26 02:52:00,76.7,70.1,29.89,South,184,1.0,4.0,80,0.00,,,0.00,WeatherCatV1.21B27,2013-08-26 07:52:00,
2013-08-26 02:57:00,76.5,69.8,29.89,South,184,0.0,1.0,80,0.00,,,0.00,WeatherCatV1.21B27,2013-08-26 07:57:00,
2013-08-26 03:02:00,76.3,69.7,29.89,South,184,2.0,3.0,80,0.00,,,0.00,WeatherCatV1.21B27,2013-08-26 08:02:00,
2013-08-26 03:07:00,76.1,69.5,29.89,South,184,0.0,5.0,80,0.00,,,0.00,WeatherCatV1.21B27,2013-08-26 08:07:00,
2013-08-26 03:12:00,76.1,69.8,29.89,South,184,0.0,4.0,81,0.00,,,0.00,WeatherCatV1.21B27,2013-08-26 08:12:00,
2013-08-26 03:17:00,76.0,69.7,29.89,South,184,0.0,4.0,81,0.00,,,0.00,WeatherCatV1.21B27,2013-08-26 08:17:00,
2013-08-26 03:22:00,76.0,69.7,29.89,South,184,0.0,4.0,81,0.00,,,0.00,WeatherCatV1.21B27,2013-08-26 08:22:00,
2013-08-26 03:27:00,75.8,69.5,29.89,South,184,2.0,2.0,81,0.00,,,0.00,WeatherCatV1.21B27,2013-08-26 08:27:00,
2013-08-26 03:32:00,75.6,69.7,29.89,South,184,0.0,0.0,82,0.00,,,0.00,WeatherCatV1.21B27,2013-08-26 08:32:00,
2013-08-26 03:37:00,75.6,69.7,29.89,South,184,0.0,1.0,82,0.00,,,0.00,WeatherCatV1.21B27,2013-08-26 08:37:00,
2013-08-26 03:42:00,75.4,69.5,29.89,South,184,0.0,1.0,82,0.00,,,0.00,WeatherCatV1.21B27,2013-08-26 08:42:00,
2013-08-26 03:47:00,75.3,69.8,29.89,South,184,2.0,3.0,83,0.00,,,0.00,WeatherCatV1.21B27,2013-08-26 08:47:00,
2013-08-26 03:52:00,75.1,69.6,29.89,South,184,0.0,2.0,83,0.00,,,0.00,WeatherCatV1.21B27,2013-08-26 08:52:00,
2013-08-26 03:57:00,75.1,69.6,29.89,South,184,2.0,2.0,83,0.00,,,0.00,WeatherCatV1.21B27,2013-08-26 08:57:00,
2013-08-26 04:02:00,74.9,69.7,29.89,South,184,0.0,3.0,84,0.00,,,0.00,WeatherCatV1.21B27,2013-08-26 09:02:00,
2013-08-26 04:07:00,74.7,69.5,29.89,South,184,0.0,2.0,84,0.00,,,0.00,WeatherCatV1.21B27,2013-08-26 09:07:00,
2013-08-26 04:12:00,74.7,69.5,29.89,South,184,0.0,3.0,84,0.00,,,0.00,WeatherCatV1.21B27,2013-08-26 09:12:00,
2013-08-26 04:17:00,74.6,69.4,29.89,South,184,0.0,0.0,84,0.00,,,0.00,WeatherCatV1.21B27,2013-08-26 09:17:00,
2013-08-26 04:22:00,74.4,69.6,29.89,South,184,0.0,0.0,85,0.00,,,0.00,WeatherCatV1.21B27,2013-08-26 09:22:00,
2013-08-26 04:27:00,74.2,69.4,29.89,South,184,0.0,0.0,85,0.00,,,0.00,WeatherCatV1.21B27,2013-08-26 09:27:00,
2013-08-26 04:32:00,74.2,69.4,29.89,South,184,0.0,1.0,85,0.00,,,0.00,WeatherCatV1.21B27,2013-08-26 09:32:00,
2013-08-26 04:37:00,74.0,69.5,29.89,South,184,0.0,1.0,86,0.00,,,0.00,WeatherCatV1.21B27,2013-08-26 09:37:00,
2013-08-26 04:42:00,73.9,69.4,29.89,South,184,0.0,0.0,86,0.00,,,0.00,WeatherCatV1.21B27,2013-08-26 09:42:00,
2013-08-26 04:47:00,73.7,69.2,29.89,South,184,0.0,0.0,86,0.00,,,0.00,WeatherCatV1.21B27,2013-08-26 09:47:00,
2013-08-26 04:52:00,73.7,69.2,29.89,South,184,0.0,0.0,86,0.00,,,0.00,WeatherCatV1.21B27,2013-08-26 09:52:00,
2013-08-26 04:57:00,73.5,69.4,29.89,South,184,0.0,0.0,87,0.00,,,0.00,WeatherCatV1.21B27,2013-08-26 09:57:00,
2013-08-26 05:02:00,73.3,69.2,29.90,South,184,0.0,0.0,87,0.00,,,0.00,WeatherCatV1.21B27,2013-08-26 10:02:00,
2013-08-26 05:07:00,73.3,69.2,29.90,South,184,0.0,0.0,87,0.00,,,0.00,WeatherCatV1.21B27,2013-08-26 10:07:00,
2013-08-26 05:12:00,73.2,69.4,29.90,South,184,0.0,0.0,88,0.00,,,0.00,WeatherCatV1.21B27,2013-08-26 10:12:00,
2013-08-26 05:17:00,73.2,69.4,29.90,South,184,0.0,0.0,88,0.00,,,0.00,WeatherCatV1.21B27,2013-08-26 10:17:00,
2013-08-26 05:22:00,73.0,69.2,29.90,South,184,0.0,0.0,88,0.00,,,0.00,WeatherCatV1.21B27,2013-08-26 10:22:00,
2013-08-26 05:27:00,72.8,69.0,29.90,South,184,0.0,0.0,88,0.00,,,0.00,WeatherCatV1.21B27,2013-08-26 10:27:00,
2013-08-26 05:32:00,72.8,69.4,29.90,South,184,0.0,0.0,89,0.00,,,0.00,WeatherCatV1.21B27,2013-08-26 10:32:00,
2013-08-26 05:37:00,72.7,69.3,29.90,South,184,0.0,1.0,89,0.00,,,0.00,WeatherCatV1.21B27,2013-08-26 10:37:00,
2013-08-26 05:42:00,72.7,69.3,29.90,South,184,0.0,1.0,89,0.00,,,0.00,WeatherCatV1.21B27,2013-08-26 10:42:00,
2013-08-26 05:47:00,72.7,69.3,29.90,South,184,0.0,0.0,89,0.00,,,0.00,WeatherCatV1.21B27,2013-08-26 10:47:00,
2013-08-26 05:52:00,72.7,69.6,29.90,South,184,0.0,1.0,90,0.00,,,0.00,WeatherCatV1.21B27,2013-08-26 10:52:00,
2013-08-26 05:57:00,72.7,69.6,29.90,South,184,0.0,0.0,90,0.00,,,0.00,WeatherCatV1.21B27,2013-08-26 10:57:00,
2013-08-26 06:02:00,72.7,69.6,29.90,South,184,0.0,0.0,90,0.00,,,0.00,WeatherCatV1.21B27,2013-08-26 11:02:00,
2013-08-26 06:07:00,72.5,69.4,29.90,South,184,0.0,0.0,90,0.00,,,0.00,WeatherCatV1.21B27,2013-08-26 11:07:00,
2013-08-26 06:12:00,72.5,69.4,29.90,South,184,0.0,1.0,90,0.00,,,0.00,WeatherCatV1.21B27,2013-08-26 11:12:00,
2013-08-26 06:17:00,72.5,69.4,29.90,South,184,0.0,0.0,90,0.00,,,0.00,WeatherCatV1.21B27,2013-08-26 11:17:00,
2013-08-26 06:22:00,72.5,69.4,29.90,South,184,0.0,0.0,90,0.00,,,0.00,WeatherCatV1.21B27,2013-08-26 11:22:00,
2013-08-26 06:27:00,72.5,69.4,29.90,South,184,0.0,1.0,90,0.00,,,0.00,WeatherCatV1.21B27,2013-08-26 11:27:00,
2013-08-26 06:32:00,72.5,69.4,29.90,South,184,0.0,0.0,90,0.00,,,0.00,WeatherCatV1.21B27,2013-08-26 11:32:00,
2013-08-26 06:37:00,72.5,69.4,29.90,South,184,0.0,0.0,90,0.00,,,0.00,WeatherCatV1.21B27,2013-08-26 11:37:00,
2013-08-26 06:42:00,72.3,69.2,29.90,South,184,0.0,1.0,90,0.00,,,0.00,WeatherCatV1.21B27,2013-08-26 11:42:00,
2013-08-26 06:47:00,72.3,69.2,29.90,South,184,0.0,0.0,90,0.00,,,0.00,WeatherCatV1.21B27,2013-08-26 11:47:00,
2013-08-26 06:52:00,72.3,69.2,29.90,South,184,0.0,0.0,90,0.00,,,0.00,WeatherCatV1.21B27,2013-08-26 11:52:00,
2013-08-26 06:57:00,72.1,69.3,29.90,South,184,0.0,0.0,91,0.00,,,0.00,WeatherCatV1.21B27,2013-08-26 11:57:00,
2013-08-26 07:02:00,72.1,69.3,29.90,South,184,0.0,0.0,91,0.00,,,0.00,WeatherCatV1.21B27,2013-08-26 12:02:00,
2013-08-26 07:07:00,72.1,69.3,29.90,South,184,0.0,0.0,91,0.00,,,0.00,WeatherCatV1.21B27,2013-08-26 12:07:00,
2013-08-26 07:12:00,72.1,69.3,29.90,South,184,0.0,0.0,91,0.00,,,0.00,WeatherCatV1.21B27,2013-08-26 12:12:00,
2013-08-26 07:17:00,72.3,69.5,29.91,South,184,0.0,0.0,91,0.00,,,0.00,WeatherCatV1.21B27,2013-08-26 12:17:00,
2013-08-26 07:22:00,72.7,69.9,29.91,South,184,0.0,2.0,91,0.00,,,0.00,WeatherCatV1.21B27,2013-08-26 12:22:00,
2013-08-26 07:27:00,73.0,70.2,29.91,South,184,0.0,0.0,91,0.00,,,0.00,WeatherCatV1.21B27,2013-08-26 12:27:00,
2013-08-26 07:32:00,73.2,70.4,29.91,South,184,0.0,0.0,91,0.00,,,0.00,WeatherCatV1.21B27,2013-08-26 12:32:00,
2013-08-26 07:37:00,73.5,70.4,29.91,South,184,0.0,0.0,90,0.00,,,0.00,WeatherCatV1.21B27,2013-08-26 12:37:00,
2013-08-26 07:42:00,73.9,70.8,29.91,South,184,0.0,0.0,90,0.00,,,0.00,WeatherCatV1.21B27,2013-08-26 12:42:00,
2013-08-26 07:47:00,74.2,70.7,29.91,South,184,0.0,1.0,89,0.00,,,0.00,WeatherCatV1.21B27,2013-08-26 12:47:00,
2013-08-26 07:52:00,74.6,70.8,29.91,South,184,0.0,2.0,88,0.00,,,0.00,WeatherCatV1.21B27,2013-08-26 12:52:00,
2013-08-26 07:57:00,74.7,70.6,29.91,South,184,0.0,2.0,87,0.00,,,0.00,WeatherCatV1.21B27,2013-08-26 12:57:00,
2013-08-26 08:02:00,74.9,70.4,29.90,South,184,0.0,6.0,86,0.00,,,0.00,WeatherCatV1.21B27,2013-08-26 13:02:00,
2013-08-26 08:07:00,75.1,70.3,29.90,South,184,0.0,6.0,85,0.00,,,0.00,WeatherCatV1.21B27,2013-08-26 13:07:00,
2013-08-26 08:12:00,75.3,70.5,29.90,South,184,0.0,1.0,85,0.00,,,0.00,WeatherCatV1.21B27,2013-08-26 13:12:00,
2013-08-26 08:17:00,75.4,70.6,29.91,South,184,5.0,5.0,85,0.00,,,0.00,WeatherCatV1.21B27,2013-08-26 13:17:00,
2013-08-26 08:22:00,75.6,70.4,29.91,South,184,1.0,3.0,84,0.00,,,0.00,WeatherCatV1.21B27,2013-08-26 13:22:00,
2013-08-26 08:27:00,75.8,70.6,29.91,South,184,0.0,5.0,84,0.00,,,0.00,WeatherCatV1.21B27,2013-08-26 13:27:00,
2013-08-26 08:32:00,76.0,70.8,29.91,South,184,0.0,3.0,84,0.00,,,0.00,WeatherCatV1.21B27,2013-08-26 13:32:00,
2013-08-26 08:37:00,76.3,70.7,29.91,South,184,0.0,4.0,83,0.00,,,0.00,WeatherCatV1.21B27,2013-08-26 13:37:00,
2013-08-26 08:42:00,76.5,70.9,29.91,South,183,0.0,6.0,83,0.00,,,0.00,WeatherCatV1.21B27,2013-08-26 13:42:00,
2013-08-26 08:47:00,76.7,70.8,29.90,South,173,1.0,9.0,82,0.00,,,0.00,WeatherCatV1.21B27,2013-08-26 13:47:00,
2013-08-26 08:52:00,77.0,70.7,29.90,South,183,0.0,3.0,81,0.00,,,0.00,WeatherCatV1.21B27,2013-08-26 13:52:00,
2013-08-26 08:57:00,77.2,70.9,29.90,South,178,3.0,8.0,81,0.00,,,0.00,WeatherCatV1.21B27,2013-08-26 13:57:00,
2013-08-26 09:02:00,77.6,70.9,29.90,South,175,2.0,4.0,80,0.00,,,0.00,WeatherCatV1.21B27,2013-08-26 14:02:00,
2013-08-26 09:07:00,77.9,71.2,29.90,SSE,167,4.0,6.0,80,0.00,,,0.00,WeatherCatV1.21B27,2013-08-26 14:07:00,
2013-08-26 09:12:00,78.1,71.0,29.90,South,180,0.0,7.0,79,0.00,,,0.00,WeatherCatV1.21B27,2013-08-26 14:12:00,
2013-08-26 09:17:00,78.5,71.1,29.90,South,184,5.0,8.0,78,0.00,,,0.00,WeatherCatV1.21B27,2013-08-26 14:17:00,
2013-08-26 09:22:00,78.6,71.2,29.90,South,171,0.0,7.0,78,0.00,,,0.00,WeatherCatV1.21B27,2013-08-26 14:22:00,
2013-08-26 09:27:00,78.8,71.0,29.90,SSE,167,4.0,9.0,77,0.00,,,0.00,WeatherCatV1.21B27,2013-08-26 14:27:00,
2013-08-26 09:32:00,79.2,71.3,29.89,South,176,0.0,6.0,77,0.00,,,0.00,WeatherCatV1.21B27,2013-08-26 14:32:00,
2013-08-26 09:37:00,79.4,71.2,29.89,South,171,4.0,9.0,76,0.00,,,0.00,WeatherCatV1.21B27,2013-08-26 14:37:00,
2013-08-26 09:42:00,79.8,71.2,29.89,South,169,5.0,14.0,75,0.00,,,0.00,WeatherCatV1.21B27,2013-08-26 14:42:00,
2013-08-26 09:47:00,79.9,70.8,29.89,SSE,168,6.0,9.0,74,0.00,,,0.00,WeatherCatV1.21B27,2013-08-26 14:47:00,
2013-08-26 09:52:00,80.3,71.2,29.89,South,177,2.0,6.0,74,0.00,,,0.00,WeatherCatV1.21B27,2013-08-26 14:52:00,
2013-08-26 09:57:00,80.7,71.2,29.89,South,190,2.0,5.0,73,0.00,,,0.00,WeatherCatV1.21B27,2013-08-26 14:57:00,
2013-08-26 10:02:00,80.9,71.0,29.89,South,181,1.0,12.0,72,0.00,,,0.00,WeatherCatV1.21B27,2013-08-26 15:02:00,
2013-08-26 10:07:00,81.1,71.2,29.89,SSW,197,6.0,9.0,72,0.00,,,0.00,WeatherCatV1.21B27,2013-08-26 15:07:00,
2013-08-26 10:12:00,81.2,70.9,29.89,South,174,0.0,12.0,71,0.00,,,0.00,WeatherCatV1.21B27,2013-08-26 15:12:00,
2013-08-26 10:17:00,81.6,71.3,29.89,SSW,192,0.0,3.0,71,0.00,,,0.00,WeatherCatV1.21B27,2013-08-26 15:17:00,
2013-08-26 10:22:00,82.2,71.4,29.89,SSW,198,5.0,9.0,70,0.00,,,0.00,WeatherCatV1.21B27,2013-08-26 15:22:00,
2013-08-26 10:27:00,82.6,70.9,29.89,SSW,208,6.0,12.0,68,0.00,,,0.00,WeatherCatV1.21B27,2013-08-26 15:27:00,
2013-08-26 10:32:00,83.0,71.3,29.89,South,182,1.0,4.0,68,0.00,,,0.00,WeatherCatV1.21B27,2013-08-26 15:32:00,
2013-08-26 10:37:00,83.4,70.8,29.89,SSW,202,1.0,10.0,66,0.00,,,0.00,WeatherCatV1.21B27,2013-08-26 15:37:00,
2013-08-26 10:42:00,83.8,70.8,29.89,South,186,2.0,5.0,65,0.00,,,0.00,WeatherCatV1.21B27,2013-08-26 15:42:00,
2013-08-26 10:47:00,84.0,70.0,29.88,SSW,204,1.0,10.0,63,0.00,,,0.00,WeatherCatV1.21B27,2013-08-26 15:47:00,
2013-08-26 10:52:00,84.3,69.8,29.88,South,171,0.0,6.0,62,0.00,,,0.00,WeatherCatV1.21B27,2013-08-26 15:52:00,
2013-08-26 10:57:00,84.7,70.2,29.88,South,187,0.0,8.0,62,0.00,,,0.00,WeatherCatV1.21B27,2013-08-26 15:57:00,
2013-08-26 11:02:00,85.1,70.1,29.88,SSW,194,3.0,12.0,61,0.00,,,0.00,WeatherCatV1.21B27,2013-08-26 16:02:00,
2013-08-26 11:07:00,85.3,69.3,29.88,South,178,7.0,7.0,59,0.00,,,0.00,WeatherCatV1.21B27,2013-08-26 16:07:00,
2013-08-26 11:12:00,85.7,69.7,29.88,SW,226,11.0,14.0,59,0.00,,,0.00,WeatherCatV1.21B27,2013-08-26 16:12:00,
2013-08-26 11:17:00,86.1,68.5,29.88,West,260,5.0,15.0,56,0.00,,,0.00,WeatherCatV1.21B27,2013-08-26 16:17:00,
2013-08-26 11:22:00,86.3,69.8,29.88,South,185,6.0,8.0,58,0.00,,,0.00,WeatherCatV1.21B27,2013-08-26 16:22:00,
2013-08-26 11:27:00,86.5,69.9,29.88,SSW,192,3.0,7.0,58,0.00,,,0.00,WeatherCatV1.21B27,2013-08-26 16:27:00,
2013-08-26 11:32:00,86.5,68.9,29.88,South,191,13.0,13.0,56,0.00,,,0.00,WeatherCatV1.21B27,2013-08-26 16:32:00,
2013-08-26 11:37:00,86.7,68.6,29.88,South,184,6.0,13.0,55,0.00,,,0.00,WeatherCatV1.21B27,2013-08-26 16:37:00,
2013-08-26 11:42:00,87.0,67.8,29.88,South,180,9.0,11.0,53,0.00,,,0.00,WeatherCatV1.21B27,2013-08-26 16:42:00,
2013-08-26 11:47:00,87.2,68.5,29.88,South,188,11.0,11.0,54,0.00,,,0.00,WeatherCatV1.21B27,2013-08-26 16:47:00,
2013-08-26 11:52:00,87.4,68.7,29.88,South,178,5.0,10.0,54,0.00,,,0.00,WeatherCatV1.21B27,2013-08-26 16:52:00,
2013-08-26 11:57:00,87.4,68.1,29.88,South,180,3.0,13.0,53,0.00,,,0.00,WeatherCatV1.21B27,2013-08-26 16:57:00,
2013-08-26 12:02:00,87.6,69.4,29.87,South,190,5.0,7.0,55,0.00,,,0.00,WeatherCatV1.21B27,2013-08-26 17:02:00,
2013-08-26 12:07:00,88.0,68.7,29.87,SSW,201,10.0,13.0,53,0.00,,,0.00,WeatherCatV1.21B27,2013-08-26 17:07:00,
2013-08-26 12:12:00,88.2,68.3,29.87,SSW,196,5.0,10.0,52,0.00,,,0.00,WeatherCatV1.21B27,2013-08-26 17:12:00,
2013-08-26 12:17:00,88.6,69.8,29.86,South,186,2.0,7.0,54,0.00,,,0.00,WeatherCatV1.21B27,2013-08-26 17:17:00,
2013-08-26 12:22:00,89.0,68.5,29.86,South,189,0.0,6.0,51,0.00,,,0.00,WeatherCatV1.21B27,2013-08-26 17:22:00,
2013-08-26 12:27:00,89.5,69.5,29.86,SW,217,6.0,11.0,52,0.00,,,0.00,WeatherCatV1.21B27,2013-08-26 17:27:00,
2013-08-26 12:32:00,89.5,68.9,29.86,SSW,192,9.0,11.0,51,0.00,,,0.00,WeatherCatV1.21B27,2013-08-26 17:32:00,
2013-08-26 12:37:00,89.7,68.5,29.86,SW,221,6.0,14.0,50,0.00,,,0.00,WeatherCatV1.21B27,2013-08-26 17:37:00,
2013-08-26 12:42:00,90.1,69.5,29.86,South,176,9.0,9.0,51,0.00,,,0.00,WeatherCatV1.21B27,2013-08-26 17:42:00,
2013-08-26 12:47:00,90.3,69.1,29.85,SSE,161,0.0,6.0,50,0.00,,,0.00,WeatherCatV1.21B27,2013-08-26 17:47:00,
2013-08-26 12:52:00,90.7,69.5,29.85,SSE,163,0.0,10.0,50,0.00,,,0.00,WeatherCatV1.21B27,2013-08-26 17:52:00,
2013-08-26 12:57:00,90.7,68.9,29.85,South,177,10.0,16.0,49,0.00,,,0.00,WeatherCatV1.21B27,2013-08-26 17:57:00,
2013-08-26 13:02:00,90.7,68.9,29.85,South,181,5.0,14.0,49,0.00,,,0.00,WeatherCatV1.21B27,2013-08-26 18:02:00,
2013-08-26 13:07:00,91.0,69.1,29.85,South,171,7.0,7.0,49,0.00,,,0.00,WeatherCatV1.21B27,2013-08-26 18:07:00,
2013-08-26 13:12:00,91.2,69.3,29.85,South,184,10.0,10.0,49,0.00,,,0.00,WeatherCatV1.21B27,2013-08-26 18:12:00,
2013-08-26 13:17:00,91.4,68.9,29.85,South,183,5.0,14.0,48,0.00,,,0.00,WeatherCatV1.21B27,2013-08-26 18:17:00,
2013-08-26 13:22:00,91.6,69.1,29.85,SW,215,7.0,13.0,48,0.00,,,0.00,WeatherCatV1.21B27,2013-08-26 18:22:00,
2013-08-26 13:27:00,91.8,69.3,29.85,SW,219,4.0,17.0,48,0.00,,,0.00,WeatherCatV1.21B27,2013-08-26 18:27:00,
2013-08-26 13:32:00,92.3,69.1,29.84,South,171,3.0,11.0,47,0.00,,,0.00,WeatherCatV1.21B27,2013-08-26 18:32:00,
2013-08-26 13:37:00,92.5,69.9,29.84,South,185,3.0,7.0,48,0.00,,,0.00,WeatherCatV1.21B27,2013-08-26 18:37:00,
2013-08-26 13:42:00,92.9,69.0,29.84,SSE,167,4.0,13.0,46,0.00,,,0.00,WeatherCatV1.21B27,2013-08-26 18:42:00,
2013-08-26 13:47:00,93.2,69.3,29.83,SW,235,0.0,8.0,46,0.00,,,0.00,WeatherCatV1.21B27,2013-08-26 18:47:00,
2013-08-26 13:52:00,93.4,68.8,29.83,South,191,3.0,12.0,45,0.00,,,0.00,WeatherCatV1.21B27,2013-08-26 18:52:00,
2013-08-26 13:57:00,93.4,69.5,29.83,SSE,160,5.0,12.0,46,0.00,,,0.00,WeatherCatV1.21B27,2013-08-26 18:57:00,
2013-08-26 14:02:00,93.6,69.7,29.83,South,186,6.0,8.0,46,0.00,,,0.00,WeatherCatV1.21B27,2013-08-26 19:02:00,
2013-08-26 14:07:00,93.8,68.5,29.83,SSE,164,2.0,12.0,44,0.00,,,0.00,WeatherCatV1.21B27,2013-08-26 19:07:00,
2013-08-26 14:12:00,93.8,68.5,29.83,SW,216,6.0,10.0,44,0.00,,,0.00,WeatherCatV1.21B27,2013-08-26 19:12:00,
2013-08-26 14:17:00,94.0,68.7,29.83,South,180,9.0,9.0,44,0.00,,,0.00,WeatherCatV1.21B27,2013-08-26 19:17:00,
2013-08-26 14:22:00,94.3,68.3,29.83,South,181,11.0,12.0,43,0.00,,,0.00,WeatherCatV1.21B27,2013-08-26 19:22:00,
2013-08-26 14:27:00,94.3,68.3,29.83,South,172,6.0,12.0,43,0.00,,,0.00,WeatherCatV1.21B27,2013-08-26 19:27:00,
2013-08-26 14:32:00,94.7,68.7,29.82,South,178,8.0,8.0,43,0.00,,,0.00,WeatherCatV1.21B27,2013-08-26 19:32:00,
2013-08-26 14:37:00,94.9,68.8,29.82,South,182,6.0,9.0,43,0.00,,,0.00,WeatherCatV1.21B27,2013-08-26 19:37:00,
2013-08-26 14:42:00,95.1,67.6,29.82,South,180,8.0,11.0,41,0.00,,,0.00,WeatherCatV1.21B27,2013-08-26 19:42:00,
2013-08-26 14:47:00,95.1,67.6,29.82,SSW,196,9.0,14.0,41,0.00,,,0.00,WeatherCatV1.21B27,2013-08-26 19:47:00,
2013-08-26 14:52:00,94.9,68.2,29.82,SSW,200,5.0,10.0,42,0.00,,,0.00,WeatherCatV1.21B27,2013-08-26 19:52:00,
2013-08-26 14:57:00,95.1,68.3,29.82,South,182,1.0,9.0,42,0.00,,,0.00,WeatherCatV1.21B27,2013-08-26 19:57:00,
2013-08-26 15:02:00,95.4,69.3,29.82,South,191,1.0,9.0,43,0.00,,,0.00,WeatherCatV1.21B27,2013-08-26 20:02:00,
2013-08-26 15:07:00,95.6,69.5,29.82,SSW,200,8.0,8.0,43,0.00,,,0.00,WeatherCatV1.21B27,2013-08-26 20:07:00,
2013-08-26 15:12:00,95.9,66.9,29.82,SSW,198,9.0,15.0,39,0.00,,,0.00,WeatherCatV1.21B27,2013-08-26 20:12:00,
2013-08-26 15:17:00,95.9,68.3,29.81,South,173,4.0,9.0,41,0.00,,,0.00,WeatherCatV1.21B27,2013-08-26 20:17:00,
2013-08-26 15:22:00,95.9,67.6,29.81,SSW,199,6.0,10.0,40,0.00,,,0.00,WeatherCatV1.21B27,2013-08-26 20:22:00,
2013-08-26 15:27:00,95.9,68.3,29.81,SSW,205,1.0,7.0,41,0.00,,,0.00,WeatherCatV1.21B27,2013-08-26 20:27:00,
2013-08-26 15:32:00,96.1,68.5,29.81,South,190,0.0,3.0,41,0.00,,,0.00,WeatherCatV1.21B27,2013-08-26 20:32:00,
2013-08-26 15:37:00,96.3,67.2,29.81,South,183,5.0,11.0,39,0.00,,,0.00,WeatherCatV1.21B27,2013-08-26 20:37:00,
2013-08-26 15:42:00,96.6,67.5,29.81,South,186,2.0,9.0,39,0.00,,,0.00,WeatherCatV1.21B27,2013-08-26 20:42:00,
2013-08-26 15:47:00,96.3,67.2,29.80,SSE,165,7.0,12.0,39,0.00,,,0.00,WeatherCatV1.21B27,2013-08-26 20:47:00,
2013-08-26 15:52:00,96.3,67.2,29.80,South,186,4.0,18.0,39,0.00,,,0.00,WeatherCatV1.21B27,2013-08-26 20:52:00,
2013-08-26 15:57:00,96.3,68.0,29.80,SSW,199,5.0,11.0,40,0.00,,,0.00,WeatherCatV1.21B27,2013-08-26 20:57:00,
2013-08-26 16:02:00,96.3,68.7,29.80,South,189,4.0,4.0,41,0.00,,,0.00,WeatherCatV1.21B27,2013-08-26 21:02:00,
2013-08-26 16:07:00,95.9,66.2,29.80,SSE,167,9.0,12.0,38,0.00,,,0.00,WeatherCatV1.21B27,2013-08-26 21:07:00,
2013-08-26 16:12:00,95.6,68.1,29.80,South,175,2.0,9.0,41,0.00,,,0.00,WeatherCatV1.21B27,2013-08-26 21:12:00,
2013-08-26 16:17:00,95.4,66.5,29.80,SSE,167,6.0,11.0,39,0.00,,,0.00,WeatherCatV1.21B27,2013-08-26 21:17:00,
2013-08-26 16:22:00,95.1,67.6,29.80,South,182,4.0,10.0,41,0.00,,,0.00,WeatherCatV1.21B27,2013-08-26 21:22:00,
2013-08-26 16:27:00,94.5,67.1,29.80,South,187,2.0,12.0,41,0.00,,,0.00,WeatherCatV1.21B27,2013-08-26 21:27:00,
2013-08-26 16:32:00,94.0,66.7,29.80,SSW,207,4.0,12.0,41,0.00,,,0.00,WeatherCatV1.21B27,2013-08-26 21:32:00,
2013-08-26 16:37:00,93.8,67.2,29.80,South,178,5.0,7.0,42,0.00,,,0.00,WeatherCatV1.21B27,2013-08-26 21:37:00,
2013-08-26 16:42:00,93.6,67.7,29.80,South,184,2.0,9.0,43,0.00,,,0.00,WeatherCatV1.21B27,2013-08-26 21:42:00,
2013-08-26 16:47:00,93.4,66.8,29.80,South,178,6.0,12.0,42,0.00,,,0.00,WeatherCatV1.21B27,2013-08-26 21:47:00,
2013-08-26 16:52:00,93.2,66.6,29.80,South,171,6.0,15.0,42,0.00,,,0.00,WeatherCatV1.21B27,2013-08-26 21:52:00,
2013-08-26 16:57:00,93.2,67.3,29.80,South,183,4.0,7.0,43,0.00,,,0.00,WeatherCatV1.21B27,2013-08-26 21:57:00,
2013-08-26 17:02:00,93.2,65.9,29.80,South,178,3.0,16.0,41,0.00,,,0.00,WeatherCatV1.21B27,2013-08-26 22:02:00,
2013-08-26 17:07:00,93.4,66.8,29.80,SSE,163,4.0,16.0,42,0.00,,,0.00,WeatherCatV1.21B27,2013-08-26 22:07:00,
2013-08-26 17:12:00,93.8,66.5,29.80,South,182,1.0,13.0,41,0.00,,,0.00,WeatherCatV1.21B27,2013-08-26 22:12:00,
2013-08-26 17:17:00,94.5,65.7,29.80,SSW,204,10.0,16.0,39,0.00,,,0.00,WeatherCatV1.21B27,2013-08-26 22:17:00,
2013-08-26 17:22:00,94.9,65.3,29.80,South,178,5.0,15.0,38,0.00,,,0.00,WeatherCatV1.21B27,2013-08-26 22:22:00,
2013-08-26 17:27:00,95.1,65.4,29.80,South,169,3.0,14.0,38,0.00,,,0.00,WeatherCatV1.21B27,2013-08-26 22:27:00,
2013-08-26 17:32:00,95.4,66.5,29.80,South,176,3.0,9.0,39,0.00,,,0.00,WeatherCatV1.21B27,2013-08-26 22:32:00,
2013-08-26 17:37:00,95.6,66.6,29.80,South,181,6.0,6.0,39,0.00,,,0.00,WeatherCatV1.21B27,2013-08-26 22:37:00,
2013-08-26 17:42:00,95.9,66.2,29.80,South,187,4.0,12.0,38,0.00,,,0.00,WeatherCatV1.21B27,2013-08-26 22:42:00,
2013-08-26 17:47:00,95.6,65.9,29.80,South,178,5.0,16.0,38,0.00,,,0.00,WeatherCatV1.21B27,2013-08-26 22:47:00,
2013-08-26 17:52:00,95.4,65.7,29.80,South,178,6.0,13.0,38,0.00,,,0.00,WeatherCatV1.21B27,2013-08-26 22:52:00,
2013-08-26 17:58:00,94.9,66.0,29.80,South,188,0.0,5.0,39,0.00,,,0.00,WeatherCatV1.21B27,2013-08-26 22:58:00,
2013-08-26 18:03:00,94.7,66.6,29.79,SSW,213,4.0,7.0,40,0.00,,,0.00,WeatherCatV1.21B27,2013-08-26 23:03:00,
2013-08-26 18:08:00,94.5,67.1,29.79,South,171,2.0,9.0,41,0.00,,,0.00,WeatherCatV1.21B27,2013-08-26 23:08:00,
2013-08-26 18:13:00,94.3,67.6,29.79,SSW,197,10.0,11.0,42,0.00,,,0.00,WeatherCatV1.21B27,2013-08-26 23:13:00,
2013-08-26 18:18:00,93.8,68.5,29.79,South,171,12.0,12.0,44,0.00,,,0.00,WeatherCatV1.21B27,2013-08-26 23:18:00,
2013-08-26 18:23:00,93.4,68.2,29.79,South,178,0.0,5.0,44,0.00,,,0.00,WeatherCatV1.21B27,2013-08-26 23:23:00,
2013-08-26 18:28:00,92.9,67.7,29.79,SSE,168,2.0,11.0,44,0.00,,,0.00,WeatherCatV1.21B27,2013-08-26 23:28:00,
2013-08-26 18:33:00,92.7,67.5,29.79,South,178,3.0,12.0,44,0.00,,,0.00,WeatherCatV1.21B27,2013-08-26 23:33:00,
2013-08-26 18:38:00,92.5,68.7,29.79,SSW,197,9.0,9.0,46,0.00,,,0.00,WeatherCatV1.21B27,2013-08-26 23:38:00,
2013-08-26 18:43:00,92.3,68.5,29.79,SSE,153,3.0,7.0,46,0.00,,,0.00,WeatherCatV1.21B27,2013-08-26 23:43:00,
2013-08-26 18:48:00,92.1,67.7,29.79,South,179,2.0,11.0,45,0.00,,,0.00,WeatherCatV1.21B27,2013-08-26 23:48:00,
2013-08-26 18:53:00,91.8,68.0,29.79,South,172,7.0,9.0,46,0.00,,,0.00,WeatherCatV1.21B27,2013-08-26 23:53:00,
2013-08-26 18:58:00,91.6,68.5,29.79,SSW,202,0.0,3.0,47,0.00,,,0.00,WeatherCatV1.21B27,2013-08-26 23:58:00,
2013-08-26 19:03:00,91.4,68.3,29.79,South,169,5.0,7.0,47,0.00,,,0.00,WeatherCatV1.21B27,2013-08-27 00:03:00,
2013-08-26 19:08:00,91.2,67.5,29.79,South,186,0.0,13.0,46,0.00,,,0.00,WeatherCatV1.21B27,2013-08-27 00:08:00,
2013-08-26 19:13:00,91.0,67.9,29.79,South,180,7.0,10.0,47,0.00,,,0.00,WeatherCatV1.21B27,2013-08-27 00:13:00,
2013-08-26 19:18:00,90.7,67.7,29.78,South,176,4.0,7.0,47,0.00,,,0.00,WeatherCatV1.21B27,2013-08-27 00:18:00,
2013-08-26 19:23:00,90.5,68.1,29.78,South,171,3.0,7.0,48,0.00,,,0.00,WeatherCatV1.21B27,2013-08-27 00:23:00,
2013-08-26 19:28:00,90.3,68.5,29.78,South,185,4.0,10.0,49,0.00,,,0.00,WeatherCatV1.21B27,2013-08-27 00:28:00,
2013-08-26 19:33:00,89.9,68.1,29.78,SSW,200,1.0,10.0,49,0.00,,,0.00,WeatherCatV1.21B27,2013-08-27 00:33:00,
2013-08-26 19:38:00,89.7,68.0,29.78,South,174,1.0,8.0,49,0.00,,,0.00,WeatherCatV1.21B27,2013-08-27 00:38:00,
2013-08-26 19:43:00,89.5,68.9,29.78,South,182,4.0,7.0,51,0.00,,,0.00,WeatherCatV1.21B27,2013-08-27 00:43:00,
2013-08-26 19:48:00,89.0,69.1,29.78,South,180,6.0,9.0,52,0.00,,,0.00,WeatherCatV1.21B27,2013-08-27 00:48:00,
2013-08-26 19:53:00,88.6,68.7,29.78,South,178,3.0,12.0,52,0.00,,,0.00,WeatherCatV1.21B27,2013-08-27 00:53:00,
2013-08-26 19:58:00,88.4,68.5,29.78,South,188,6.0,11.0,52,0.00,,,0.00,WeatherCatV1.21B27,2013-08-27 00:58:00,
2013-08-26 20:03:00,88.2,68.3,29.78,South,182,6.0,11.0,52,0.00,,,0.00,WeatherCatV1.21B27,2013-08-27 01:03:00,
2013-08-26 20:08:00,87.8,68.5,29.78,SSE,161,3.0,8.0,53,0.00,,,0.00,WeatherCatV1.21B27,2013-08-27 01:08:00,
2013-08-26 20:13:00,87.6,68.3,29.78,South,182,1.0,8.0,53,0.00,,,0.00,WeatherCatV1.21B27,2013-08-27 01:13:00,
2013-08-26 20:18:00,87.4,68.1,29.78,South,189,3.0,10.0,53,0.00,,,0.00,WeatherCatV1.21B27,2013-08-27 01:18:00,
2013-08-26 20:23:00,87.0,68.3,29.78,South,180,2.0,10.0,54,0.00,,,0.00,WeatherCatV1.21B27,2013-08-27 01:23:00,
2013-08-26 20:28:00,86.7,68.6,29.78,South,178,0.0,4.0,55,0.00,,,0.00,WeatherCatV1.21B27,2013-08-27 01:28:00,
2013-08-26 20:33:00,86.5,68.9,29.78,South,180,2.0,6.0,56,0.00,,,0.00,WeatherCatV1.21B27,2013-08-27 01:33:00,
2013-08-26 20:38:00,86.1,69.1,29.78,South,186,0.0,7.0,57,0.00,,,0.00,WeatherCatV1.21B27,2013-08-27 01:38:00,
2013-08-26 20:43:00,85.9,68.9,29.78,South,171,1.0,7.0,57,0.00,,,0.00,WeatherCatV1.21B27,2013-08-27 01:43:00,
2013-08-26 20:48:00,85.7,68.7,29.78,SSE,163,2.0,9.0,57,0.00,,,0.00,WeatherCatV1.21B27,2013-08-27 01:48:00,
2013-08-26 20:53:00,85.5,69.0,29.78,South,182,0.0,9.0,58,0.00,,,0.00,WeatherCatV1.21B27,2013-08-27 01:53:00,
2013-08-26 20:58:00,85.3,69.3,29.78,South,183,3.0,5.0,59,0.00,,,0.00,WeatherCatV1.21B27,2013-08-27 01:58:00,
2013-08-26 21:03:00,85.1,69.1,29.78,SSW,193,1.0,10.0,59,0.00,,,0.00,WeatherCatV1.21B27,2013-08-27 02:03:00,
2013-08-26 21:08:00,84.9,69.4,29.78,SSW,196,0.0,5.0,60,0.00,,,0.00,WeatherCatV1.21B27,2013-08-27 02:08:00,
2013-08-26 21:13:00,84.7,69.2,29.78,South,186,1.0,11.0,60,0.00,,,0.00,WeatherCatV1.21B27,2013-08-27 02:13:00,
2013-08-26 21:18:00,84.5,69.1,29.77,South,180,2.0,12.0,60,0.00,,,0.00,WeatherCatV1.21B27,2013-08-27 02:18:00,
2013-08-26 21:23:00,84.3,68.9,29.77,SSW,192,3.0,12.0,60,0.00,,,0.00,WeatherCatV1.21B27,2013-08-27 02:23:00,
2013-08-26 21:28:00,84.1,69.2,29.77,South,173,2.0,13.0,61,0.00,,,0.00,WeatherCatV1.21B27,2013-08-27 02:28:00,
2013-08-26 21:33:00,84.0,69.1,29.77,South,186,1.0,6.0,61,0.00,,,0.00,WeatherCatV1.21B27,2013-08-27 02:33:00,
2013-08-26 21:38:00,84.0,69.1,29.77,SSW,195,3.0,9.0,61,0.00,,,0.00,WeatherCatV1.21B27,2013-08-27 02:38:00,
2013-08-26 21:43:00,83.8,68.9,29.77,South,174,4.0,10.0,61,0.00,,,0.00,WeatherCatV1.21B27,2013-08-27 02:43:00,
2013-08-26 21:48:00,83.8,68.9,29.77,SSW,193,7.0,11.0,61,0.00,,,0.00,WeatherCatV1.21B27,2013-08-27 02:48:00,
2013-08-26 21:53:00,83.6,68.7,29.77,SSE,161,5.0,10.0,61,0.00,,,0.00,WeatherCatV1.21B27,2013-08-27 02:53:00,
2013-08-26 21:58:00,83.6,68.7,29.77,South,182,2.0,18.0,61,0.00,,,0.00,WeatherCatV1.21B27,2013-08-27 02:58:00,
2013-08-26 22:03:00,83.4,68.5,29.77,South,188,6.0,12.0,61,0.00,,,0.00,WeatherCatV1.21B27,2013-08-27 03:03:00,
2013-08-26 22:08:00,83.4,68.5,29.77,SSE,165,6.0,6.0,61,0.00,,,0.00,WeatherCatV1.21B27,2013-08-27 03:08:00,
2013-08-26 22:13:00,83.4,68.5,29.77,South,175,4.0,7.0,61,0.00,,,0.00,WeatherCatV1.21B27,2013-08-27 03:13:00,
2013-08-26 22:18:00,83.2,68.3,29.77,South,180,6.0,13.0,61,0.00,,,0.00,WeatherCatV1.21B27,2013-08-27 03:18:00,
2013-08-26 22:23:00,83.2,68.3,29.77,SSW,210,2.0,12.0,61,0.00,,,0.00,WeatherCatV1.21B27,2013-08-27 03:23:00,
2013-08-26 22:28:00,83.2,68.3,29.77,South,180,3.0,8.0,61,0.00,,,0.00,WeatherCatV1.21B27,2013-08-27 03:28:00,
2013-08-26 22:33:00,83.0,68.1,29.77,SSW,198,11.0,13.0,61,0.00,,,0.00,WeatherCatV1.21B27,2013-08-27 03:33:00,
2013-08-26 22:38:00,83.0,68.1,29.77,SSW,192,6.0,12.0,61,0.00,,,0.00,WeatherCatV1.21B27,2013-08-27 03:38:00,
2013-08-26 22:43:00,83.0,68.6,29.77,South,186,3.0,15.0,62,0.00,,,0.00,WeatherCatV1.21B27,2013-08-27 03:43:00,
2013-08-26 22:48:00,83.0,68.6,29.77,South,173,3.0,11.0,62,0.00,,,0.00,WeatherCatV1.21B27,2013-08-27 03:48:00,
2013-08-26 22:53:00,82.8,68.4,29.77,South,184,3.0,15.0,62,0.00,,,0.00,WeatherCatV1.21B27,2013-08-27 03:53:00,
2013-08-26 22:58:00,82.8,68.4,29.77,South,175,4.0,12.0,62,0.00,,,0.00,WeatherCatV1.21B27,2013-08-27 03:58:00,
2013-08-26 23:01:00,82.6,68.2,29.77,South,178,1.0,7.0,62,0.00,,,0.00,WeatherCatV1.21B27,2013-08-27 04:01:00,
2013-08-26 23:06:00,82.4,68.0,29.77,South,182,5.0,7.0,62,0.00,,,0.00,WeatherCatV1.21B27,2013-08-27 04:06:00,
2013-08-26 23:11:00,82.4,68.5,29.77,South,178,2.0,13.0,63,0.00,,,0.00,WeatherCatV1.21B27,2013-08-27 04:11:00,
2013-08-26 23:16:00,82.2,68.3,29.77,South,182,4.0,14.0,63,0.00,,,0.00,WeatherCatV1.21B27,2013-08-27 04:16:00,
2013-08-26 23:21:00,82.2,68.3,29.77,South,189,9.0,14.0,63,0.00,,,0.00,WeatherCatV1.21B27,2013-08-27 04:21:00,
2013-08-26 23:26:00,82.0,68.1,29.77,South,180,0.0,6.0,63,0.00,,,0.00,WeatherCatV1.21B27,2013-08-27 04:26:00,
2013-08-26 23:31:00,81.8,68.4,29.77,South,173,4.0,6.0,64,0.00,,,0.00,WeatherCatV1.21B27,2013-08-27 04:31:00,
2013-08-26 23:36:00,81.6,68.2,29.77,SSW,193,0.0,2.0,64,0.00,,,0.00,WeatherCatV1.21B27,2013-08-27 04:36:00,
2013-08-26 23:41:00,81.4,68.5,29.77,South,174,0.0,2.0,65,0.00,,,0.00,WeatherCatV1.21B27,2013-08-27 04:41:00,
2013-08-26 23:46:00,81.4,68.5,29.78,South,191,0.0,9.0,65,0.00,,,0.00,WeatherCatV1.21B27,2013-08-27 04:46:00,
2013-08-26 23:51:00,81.2,68.3,29.78,South,185,4.0,10.0,65,0.00,,,0.00,WeatherCatV1.21B27,2013-08-27 04:51:00,
2013-08-26 23:56:00,81.2,68.3,29.78,South,188,1.0,10.0,65,0.00,,,0.00,WeatherCatV1.21B27,2013-08-27 04:56:00,